Airfield :
LOGIN :

Register | Disclaimer

   EN    FR    IT 

 










Legend :    VFR   Marginal VFR   IFR   Intensive IFR   Very Intensive IFR
Visi :
Ceiling :
>= 8 km
>= 3000ft
5 to 8 km
1000 to 3000 ft
1500m to 5 km
500 to 1000 ft
800 to 1500m
200 to 500 ft
< 800m
< 200 ft
Symbols :   Thunderstorms  Fog  Heavy snow  Heavy precipitations  Wind > 20 kt
SIGMETs :     Misc.  Thunderstorms  Icing  Turbulence  Mountain Waves  Volcanic Ashes






- Airport Elevation : 1682 ft
- IATA code : VIT


LEVT - Vitoria Gasteiz

CURRENT METAR :
  • 011330Z 02009KT 350V050 9999 BKN025 07/03 Q1019

EXPIRED METARs :
  • 011300Z 02010KT 340V050 9999 BKN020 07/03 Q1019
  • 011230Z 02007KT 350V070 9999 OVC020 07/03 Q1020
  • 011200Z 01006KT 330V050 9999 OVC015 06/03 Q1020
  • 011130Z 01007KT 340V040 9999 OVC015 06/03 Q1020
  • 011100Z 36007KT 330V030 9999 OVC015 06/04 Q1020

TAF TAF LEVT
Valid from the 01 at 12:00 until the 02 at 12:00 UTC


011100Z 0112/0212 02007KT 9999 BKN020 TX08/0113Z TNM01/0206Z
PROB30
TEMPO 0112/0124 BKN010
PROB40
TEMPO 0200/0209 3000 BR BKN010
PROB40
TEMPO 0200/0209 0350 FZFG VV002



MET'MAP, your aeronautical weather chart ! - Copyright ORBIFLY December 2007 - Disclaimer

ORBIFLY MET'MAP TEAM :

Programming & Development : Alexandra Zaïnal
Original concept : Baudouin d'Aumeries
Technical & hardware support : Manuel Goepfert
Assistance : Marc-Olivier Méhu




SOURCES & CREDITS :

   NOAA